Time;durP1;ratioP1;P1;durP2;ratioP2;P2;SDS_P1;SDS_P2;PMS_P1;PMS_P2;Temp;Humidity;BMP_temperature;BMP_pressure;BME280_temperature;BME280_humidity;BME280_pressure;Samples;Min_cycle;Max_cycle;Signal;HPM_P1;HPM_P2
2022/05/06 00:00:38;;;;;;;1.00;1.00;;;15.40;99.90;;;;;;5061219;28;20458;-64
2022/05/06 00:03:09;;;;;;;0.80;0.80;;;15.60;99.90;;;;;;5059977;28;20468;-64
2022/05/06 00:05:40;;;;;;;0.83;0.83;;;16.00;99.90;;;;;;5061379;28;20614;-64
2022/05/06 00:08:13;;;;;;;0.90;0.60;;;16.50;99.90;;;;;;5067596;28;20468;-64
2022/05/06 00:10:44;;;;;;;2.20;0.63;;;16.60;99.90;;;;;;5065105;28;20527;-64
2022/05/06 00:13:15;;;;;;;2.10;0.90;;;17.10;99.90;;;;;;5063455;28;20470;-64
2022/05/06 00:15:46;;;;;;;0.80;0.80;;;17.10;99.90;;;;;;5064761;28;20487;-63
2022/05/06 00:18:18;;;;;;;1.20;1.10;;;17.20;99.90;;;;;;5064322;28;20423;-63
2022/05/06 00:20:49;;;;;;;1.10;0.90;;;17.20;99.90;;;;;;5064137;28;20461;-63
2022/05/06 00:23:21;;;;;;;0.73;0.73;;;17.00;99.90;;;;;;5062465;28;20464;-63
2022/05/06 00:25:52;;;;;;;0.70;0.70;;;16.90;99.90;;;;;;5061523;28;20498;-64
2022/05/06 00:28:23;;;;;;;0.70;0.70;;;16.90;99.90;;;;;;5064045;28;20460;-64
2022/05/06 00:30:54;;;;;;;0.80;0.70;;;16.70;99.90;;;;;;5059125;28;20882;-64
2022/05/06 00:33:25;;;;;;;2.00;0.67;;;16.70;99.90;;;;;;5063338;28;21020;-63
2022/05/06 00:35:57;;;;;;;1.23;0.47;;;16.70;99.90;;;;;;5061907;28;20464;-62
2022/05/06 00:38:30;;;;;;;0.77;0.60;;;16.70;99.90;;;;;;5062081;28;20443;-63
2022/05/06 00:41:01;;;;;;;0.57;0.50;;;16.40;99.90;;;;;;5066326;28;20444;-63
2022/05/06 00:43:31;;;;;;;0.70;0.70;;;16.10;99.90;;;;;;5072684;28;20494;-63
2022/05/06 00:46:03;;;;;;;0.60;0.37;;;15.90;99.90;;;;;;5063151;28;20502;-63
2022/05/06 00:48:34;;;;;;;2.77;0.47;;;15.70;99.90;;;;;;5062002;28;20521;-64
2022/05/06 00:51:08;;;;;;;0.67;0.40;;;15.60;99.90;;;;;;5057983;28;20486;-64
2022/05/06 00:53:43;;;;;;;0.50;0.50;;;15.40;99.90;;;;;;5061559;28;20561;-63
2022/05/06 00:56:14;;;;;;;0.60;0.50;;;15.30;99.90;;;;;;5063923;28;20558;-63
2022/05/06 00:58:46;;;;;;;4.17;2.73;;;15.30;99.90;;;;;;5063018;28;20460;-64
2022/05/06 01:01:17;;;;;;;0.40;0.40;;;15.20;99.90;;;;;;5061396;28;20499;-63
2022/05/06 01:03:48;;;;;;;1.00;0.40;;;15.10;99.90;;;;;;5062975;28;20476;-63
2022/05/06 01:06:19;;;;;;;0.60;0.40;;;15.10;99.90;;;;;;5062692;28;20514;-63
2022/05/06 01:08:52;;;;;;;0.70;0.70;;;15.20;99.90;;;;;;5061486;28;20797;-64
2022/05/06 01:11:23;;;;;;;0.53;0.43;;;15.50;99.90;;;;;;5063799;28;20456;-64
2022/05/06 01:13:55;;;;;;;2.83;0.50;;;15.60;99.90;;;;;;5062447;28;20467;-66
2022/05/06 01:16:25;;;;;;;0.40;0.30;;;15.60;99.90;;;;;;5062937;28;20491;-65
2022/05/06 01:18:56;;;;;;;0.50;0.20;;;15.70;99.90;;;;;;5055233;28;20456;-66
2022/05/06 01:21:32;;;;;;;0.40;0.30;;;15.50;99.90;;;;;;5062833;28;20471;-66
2022/05/06 01:24:05;;;;;;;1.60;0.40;;;15.40;99.90;;;;;;5061135;28;20465;-66
2022/05/06 01:26:58;;;;;;;0.30;0.20;;;15.30;99.90;;;;;;5062797;28;20567;-67
2022/05/06 01:29:31;;;;;;;0.70;0.30;;;15.10;99.90;;;;;;5063594;28;20462;-67
2022/05/06 01:32:03;;;;;;;0.50;0.40;;;15.10;99.90;;;;;;5054463;28;20472;-66
2022/05/06 01:34:34;;;;;;;1.07;0.30;;;15.20;99.90;;;;;;5060862;28;20468;-65
2022/05/06 01:37:08;;;;;;;0.87;0.43;;;15.20;99.90;;;;;;5062869;28;20470;-66
2022/05/06 01:39:41;;;;;;;0.40;0.30;;;15.30;99.90;;;;;;5062104;28;20479;-66
2022/05/06 01:42:15;;;;;;;1.47;0.60;;;15.20;99.90;;;;;;5062265;28;20464;-66
2022/05/06 01:44:49;;;;;;;1.03;0.40;;;15.10;99.90;;;;;;5061787;28;20456;-66
2022/05/06 01:47:23;;;;;;;0.53;0.23;;;15.10;99.90;;;;;;5061774;28;20486;-66
2022/05/06 01:49:56;;;;;;;0.40;0.30;;;15.10;99.90;;;;;;5061490;28;20451;-65
2022/05/06 01:52:27;;;;;;;1.57;0.47;;;15.00;99.90;;;;;;5060863;28;20468;-66
2022/05/06 01:55:00;;;;;;;0.43;0.43;;;15.10;99.90;;;;;;5060387;28;20471;-65
2022/05/06 01:57:30;;;;;;;0.67;0.60;;;15.00;99.90;;;;;;5061284;28;20469;-65
2022/05/06 02:00:02;;;;;;;0.67;0.50;;;14.90;99.90;;;;;;5056222;28;20816;-65
2022/05/06 02:02:33;;;;;;;3.00;0.60;;;15.00;99.90;;;;;;5061217;28;20464;-64
2022/05/06 02:05:19;;;;;;;0.60;0.50;;;15.00;99.90;;;;;;5061422;28;20460;-65
2022/05/06 02:07:51;;;;;;;2.40;0.50;;;15.00;99.90;;;;;;5062520;28;20532;-64
2022/05/06 02:10:25;;;;;;;0.90;0.50;;;14.90;99.90;;;;;;5061041;28;20474;-63
2022/05/06 02:12:55;;;;;;;0.60;0.30;;;14.80;99.90;;;;;;5062734;28;20520;-65
2022/05/06 02:15:27;;;;;;;1.00;0.53;;;14.80;99.90;;;;;;5060374;28;20849;-65
2022/05/06 02:17:57;;;;;;;1.80;0.43;;;14.70;99.90;;;;;;5061182;28;20459;-65
2022/05/06 02:20:28;;;;;;;0.40;0.33;;;14.70;99.90;;;;;;5062538;28;20973;-65
2022/05/06 02:22:59;;;;;;;0.80;0.50;;;14.70;99.90;;;;;;5062400;28;20783;-64
2022/05/06 02:25:32;;;;;;;1.10;0.60;;;14.60;99.90;;;;;;5062111;28;20518;-66
2022/05/06 02:28:03;;;;;;;0.40;0.40;;;14.50;99.90;;;;;;5062362;28;20484;-64
2022/05/06 02:33:24;;;;;;;1.60;0.67;;;14.40;99.90;;;;;;5061916;28;20522;-64
2022/05/06 02:35:55;;;;;;;0.50;0.47;;;14.30;99.90;;;;;;5062717;28;20449;-64
2022/05/06 02:38:27;;;;;;;1.10;0.70;;;14.40;99.90;;;;;;5047404;28;20471;-65
2022/05/06 02:40:59;;;;;;;1.07;0.50;;;14.30;99.90;;;;;;5062715;28;20462;-65
2022/05/06 02:43:30;;;;;;;0.77;0.40;;;14.20;99.90;;;;;;5061349;28;20889;-65
2022/05/06 02:46:01;;;;;;;0.70;0.40;;;14.10;99.90;;;;;;5062404;28;20460;-64
2022/05/06 02:48:32;;;;;;;1.10;0.60;;;14.10;99.90;;;;;;5061936;28;20436;-64
2022/05/06 02:51:03;;;;;;;0.67;0.50;;;14.10;99.90;;;;;;5062783;28;20444;-64
2022/05/06 02:53:34;;;;;;;2.67;0.50;;;14.10;99.90;;;;;;5060901;28;20463;-65
2022/05/06 02:56:07;;;;;;;0.53;0.53;;;14.00;99.90;;;;;;5062082;28;20456;-65
2022/05/06 02:58:37;;;;;;;0.80;0.50;;;13.90;99.90;;;;;;5061616;28;20452;-64
2022/05/06 03:01:08;;;;;;;0.90;0.60;;;13.90;99.90;;;;;;5062277;28;20448;-64
2022/05/06 03:03:39;;;;;;;0.50;0.50;;;13.80;99.90;;;;;;5061282;28;20467;-64
2022/05/06 03:06:10;;;;;;;1.33;0.70;;;13.60;99.90;;;;;;5062255;28;20525;-65
2022/05/06 03:08:41;;;;;;;1.07;0.60;;;13.50;99.90;;;;;;5060840;28;20460;-64
2022/05/06 03:11:13;;;;;;;0.50;0.50;;;13.50;99.90;;;;;;5061762;28;20482;-64
2022/05/06 03:13:44;;;;;;;1.83;0.60;;;13.40;99.90;;;;;;5061591;28;20464;-64
2022/05/06 03:16:15;;;;;;;1.17;0.40;;;13.30;99.90;;;;;;5057315;28;20491;-64
2022/05/06 03:18:46;;;;;;;0.90;0.50;;;13.20;99.90;;;;;;5061254;28;20462;-62
2022/05/06 03:21:16;;;;;;;0.83;0.60;;;13.20;99.90;;;;;;5060464;28;20461;-63
2022/05/06 03:23:52;;;;;;;1.67;0.53;;;13.10;99.90;;;;;;5060789;28;20448;-62
2022/05/06 03:26:24;;;;;;;0.40;0.40;;;13.20;99.90;;;;;;5059466;28;20464;-63
2022/05/06 03:28:57;;;;;;;1.47;0.43;;;13.10;99.90;;;;;;5059669;28;20544;-63
2022/05/06 03:31:28;;;;;;;0.50;0.50;;;13.00;99.90;;;;;;5060127;28;20472;-63
2022/05/06 03:34:01;;;;;;;1.43;0.43;;;12.90;99.90;;;;;;5059474;28;20466;-63
2022/05/06 03:36:32;;;;;;;0.70;0.37;;;12.90;99.90;;;;;;5061147;28;20519;-63
2022/05/06 03:39:04;;;;;;;0.70;0.60;;;12.90;99.90;;;;;;5059747;28;20464;-63
2022/05/06 03:41:36;;;;;;;0.87;0.40;;;12.80;99.90;;;;;;5061341;28;20496;-63
2022/05/06 03:44:07;;;;;;;0.93;0.77;;;12.90;99.90;;;;;;5060091;28;20599;-63
2022/05/06 03:46:38;;;;;;;0.70;0.70;;;12.80;99.90;;;;;;5064281;28;20460;-63
2022/05/06 03:49:11;;;;;;;0.57;0.57;;;12.80;99.90;;;;;;5064828;28;20485;-63
2022/05/06 03:51:44;;;;;;;0.60;0.50;;;12.70;99.90;;;;;;5063337;28;20471;-63
2022/05/06 03:54:16;;;;;;;0.60;0.60;;;12.80;99.90;;;;;;5063839;28;20452;-62
2022/05/06 03:56:48;;;;;;;1.30;0.70;;;12.70;99.90;;;;;;5065657;28;20524;-63
2022/05/06 03:59:19;;;;;;;0.60;0.40;;;12.70;99.90;;;;;;5064203;28;20457;-63
2022/05/06 04:01:50;;;;;;;1.63;0.57;;;12.70;99.90;;;;;;5062875;28;20506;-63
2022/05/06 04:04:21;;;;;;;0.60;0.60;;;12.50;99.90;;;;;;5063395;28;20441;-63
2022/05/06 04:06:51;;;;;;;1.17;0.87;;;12.60;99.90;;;;;;5063930;28;20452;-63
2022/05/06 04:09:22;;;;;;;1.90;0.53;;;12.50;99.90;;;;;;5060634;28;20464;-62
2022/05/06 04:11:56;;;;;;;1.27;0.47;;;12.50;99.90;;;;;;5063633;28;20907;-63
2022/05/06 04:14:27;;;;;;;1.83;0.70;;;12.60;99.90;;;;;;5063262;28;20460;-63
2022/05/06 04:16:58;;;;;;;3.50;2.20;;;12.50;99.90;;;;;;5057534;28;20955;-64
2022/05/06 04:19:29;;;;;;;1.17;0.73;;;12.60;99.90;;;;;;5062588;28;20458;-63
2022/05/06 04:24:52;;;;;;;1.57;1.20;;;12.40;99.90;;;;;;5059808;28;20769;-63
2022/05/06 04:27:24;;;;;;;1.17;1.07;;;12.40;99.90;;;;;;5059023;28;20494;-63
2022/05/06 04:29:55;;;;;;;0.63;0.53;;;12.30;99.90;;;;;;5057515;28;20469;-63
2022/05/06 04:32:27;;;;;;;1.50;0.73;;;12.40;99.90;;;;;;5063982;28;20503;-63
2022/05/06 04:34:58;;;;;;;0.70;0.57;;;12.50;99.90;;;;;;5061751;28;20456;-63
2022/05/06 04:37:28;;;;;;;1.47;1.00;;;12.50;99.90;;;;;;5068478;28;20440;-63
2022/05/06 04:39:59;;;;;;;0.67;0.60;;;12.60;99.90;;;;;;5061930;28;20774;-63
2022/05/06 04:42:32;;;;;;;0.83;0.70;;;12.60;99.90;;;;;;5062870;28;21140;-63
2022/05/06 04:45:03;;;;;;;1.90;0.63;;;12.50;99.90;;;;;;5061285;28;20459;-63
2022/05/06 04:47:34;;;;;;;1.00;0.50;;;12.50;99.90;;;;;;5064265;28;20478;-63
2022/05/06 04:50:07;;;;;;;0.53;0.53;;;12.40;99.90;;;;;;5063962;28;20451;-63
2022/05/06 04:52:38;;;;;;;1.20;0.70;;;12.40;99.90;;;;;;5064477;28;20433;-63
2022/05/06 04:55:10;;;;;;;0.83;0.70;;;12.30;99.90;;;;;;5062568;28;20936;-63
2022/05/06 04:57:42;;;;;;;1.57;0.50;;;12.30;99.90;;;;;;5064514;28;20460;-63
2022/05/06 05:00:14;;;;;;;1.37;1.10;;;12.30;99.90;;;;;;5063609;28;20567;-63
2022/05/06 05:02:45;;;;;;;1.93;1.20;;;12.40;99.90;;;;;;5063260;28;20445;-63
2022/05/06 05:05:17;;;;;;;0.97;0.97;;;12.30;99.90;;;;;;5062639;28;20467;-62
2022/05/06 05:07:47;;;;;;;0.90;0.70;;;12.20;99.90;;;;;;5063310;28;20498;-63
2022/05/06 05:10:18;;;;;;;0.67;0.60;;;12.30;99.90;;;;;;5060624;28;20482;-63
2022/05/06 05:12:54;;;;;;;0.80;0.80;;;12.30;99.90;;;;;;5065717;28;20541;-63
2022/05/06 05:15:25;;;;;;;1.13;0.93;;;12.30;99.90;;;;;;5066038;28;20472;-64
2022/05/06 05:17:56;;;;;;;1.17;1.00;;;12.40;99.90;;;;;;5062477;28;20475;-64
2022/05/06 05:20:27;;;;;;;1.00;0.70;;;12.40;99.90;;;;;;5063192;28;20547;-64
2022/05/06 05:22:58;;;;;;;1.40;0.97;;;12.40;99.90;;;;;;5063155;28;20484;-64
2022/05/06 05:25:29;;;;;;;2.20;0.80;;;12.40;99.90;;;;;;5063295;28;20460;-63
2022/05/06 05:28:01;;;;;;;0.63;0.63;;;12.40;99.90;;;;;;5065722;28;20486;-63
2022/05/06 05:30:34;;;;;;;1.60;0.90;;;12.40;99.90;;;;;;5063690;28;20453;-63
2022/05/06 05:33:06;;;;;;;0.80;0.70;;;12.30;99.90;;;;;;5063320;28;20452;-64
2022/05/06 05:35:38;;;;;;;1.00;0.90;;;12.20;99.90;;;;;;5063712;28;20452;-63
2022/05/06 05:38:11;;;;;;;1.03;0.70;;;12.20;99.90;;;;;;5062236;28;20459;-63
2022/05/06 05:40:43;;;;;;;2.43;0.70;;;12.20;99.90;;;;;;5063168;28;20456;-63
2022/05/06 05:48:51;;;;;;;0.73;0.73;;;12.20;99.90;;;;;;5062955;28;20494;-64
2022/05/06 05:51:22;;;;;;;1.87;0.97;;;12.20;99.90;;;;;;5062836;28;20588;-64
2022/05/06 05:53:53;;;;;;;0.53;0.53;;;12.10;99.90;;;;;;5062422;28;20455;-63
2022/05/06 05:56:24;;;;;;;2.40;0.80;;;12.10;99.90;;;;;;5062702;28;20464;-63
2022/05/06 05:58:56;;;;;;;0.77;0.40;;;12.10;99.90;;;;;;5062750;28;20466;-63
2022/05/06 06:01:28;;;;;;;2.20;0.80;;;12.10;99.90;;;;;;5062471;28;20452;-63
2022/05/06 06:03:59;;;;;;;1.23;0.93;;;12.00;99.90;;;;;;5062134;28;20460;-63
2022/05/06 06:06:37;;;;;;;1.20;0.90;;;12.00;99.90;;;;;;5046396;28;20458;-63
2022/05/06 06:09:07;;;;;;;1.17;1.07;;;12.10;99.90;;;;;;5064923;28;20573;-62
2022/05/06 06:11:38;;;;;;;1.27;0.87;;;12.10;99.90;;;;;;5064822;28;20494;-63
2022/05/06 06:14:11;;;;;;;0.93;0.90;;;12.10;99.90;;;;;;5061378;28;20464;-63
2022/05/06 06:16:42;;;;;;;0.80;0.80;;;12.10;99.90;;;;;;5061550;28;20472;-62
2022/05/06 06:19:15;;;;;;;1.50;0.80;;;12.10;99.90;;;;;;5062138;28;20931;-63
2022/05/06 06:21:46;;;;;;;1.37;0.80;;;12.00;99.90;;;;;;5061797;28;20467;-63
2022/05/06 06:24:19;;;;;;;0.97;0.90;;;11.90;99.90;;;;;;5061233;28;20456;-63
2022/05/06 06:26:52;;;;;;;1.90;0.77;;;12.00;99.90;;;;;;5062214;28;20456;-63
2022/05/06 06:29:25;;;;;;;1.60;0.90;;;12.10;99.90;;;;;;5061360;28;20579;-63
2022/05/06 06:31:58;;;;;;;1.53;0.90;;;12.00;99.90;;;;;;5055016;28;20475;-63
2022/05/06 06:34:29;;;;;;;0.70;0.57;;;12.00;99.90;;;;;;5061986;28;20464;-63
2022/05/06 06:37:00;;;;;;;1.33;0.63;;;12.00;99.90;;;;;;5060456;28;20457;-63
2022/05/06 06:39:32;;;;;;;1.57;0.90;;;12.00;99.90;;;;;;5061778;28;20480;-63
2022/05/06 06:42:03;;;;;;;1.23;0.77;;;12.00;99.90;;;;;;5065241;28;20465;-62
2022/05/06 06:44:35;;;;;;;1.73;0.90;;;12.00;99.90;;;;;;5060895;28;20559;-62
2022/05/06 06:47:10;;;;;;;1.63;0.90;;;12.00;99.90;;;;;;5057571;28;20459;-62
2022/05/06 06:49:41;;;;;;;2.07;1.90;;;12.00;99.90;;;;;;5056210;28;20506;-62
2022/05/06 06:52:13;;;;;;;1.23;0.80;;;11.90;99.90;;;;;;5061483;28;20456;-63
2022/05/06 06:54:44;;;;;;;0.80;0.70;;;11.90;99.90;;;;;;5052292;28;20492;-63
2022/05/06 06:57:15;;;;;;;1.00;0.90;;;11.90;99.90;;;;;;5059723;28;20569;-63
2022/05/06 06:59:47;;;;;;;0.83;0.80;;;11.80;99.90;;;;;;5061915;28;20502;-62
2022/05/06 07:02:18;;;;;;;1.10;1.00;;;11.80;99.90;;;;;;5061368;28;20475;-63
2022/05/06 07:04:51;;;;;;;1.63;1.03;;;11.90;99.90;;;;;;5064831;28;20452;-63
2022/05/06 07:12:58;;;;;;;1.97;1.20;;;11.80;99.90;;;;;;5058780;28;20444;-63
2022/05/06 07:15:31;;;;;;;2.27;1.07;;;11.80;99.90;;;;;;5053231;28;20545;-63
2022/05/06 07:18:02;;;;;;;1.43;1.20;;;11.80;99.90;;;;;;5061685;28;20497;-63
2022/05/06 07:20:33;;;;;;;1.30;1.13;;;11.90;99.90;;;;;;5062218;28;20486;-63
2022/05/06 07:23:05;;;;;;;5.47;1.83;;;11.90;99.90;;;;;;5064429;28;20547;-63
2022/05/06 07:25:36;;;;;;;2.00;1.57;;;11.80;99.90;;;;;;5064805;28;20467;-63
2022/05/06 07:28:10;;;;;;;1.17;1.07;;;11.80;99.90;;;;;;5065449;28;20460;-63
2022/05/06 07:30:43;;;;;;;4.07;1.70;;;11.80;99.90;;;;;;5064412;28;20496;-63
2022/05/06 07:33:14;;;;;;;2.00;1.50;;;11.80;99.90;;;;;;5062143;28;20529;-63
2022/05/06 07:35:44;;;;;;;2.70;1.53;;;11.90;99.90;;;;;;5065314;28;20470;-63
2022/05/06 07:38:15;;;;;;;3.93;1.40;;;11.80;99.90;;;;;;5066103;28;20484;-63
2022/05/06 07:40:46;;;;;;;3.50;1.23;;;11.70;99.90;;;;;;5064814;28;20479;-63
2022/05/06 07:43:17;;;;;;;2.53;1.53;;;11.80;99.90;;;;;;5063471;28;20460;-63
2022/05/06 07:45:50;;;;;;;1.93;1.37;;;11.80;99.90;;;;;;5064616;28;20497;-63
2022/05/06 07:48:21;;;;;;;1.57;1.23;;;11.80;99.90;;;;;;5055633;28;20518;-63
2022/05/06 07:50:52;;;;;;;3.27;1.10;;;11.80;99.90;;;;;;5065029;28;20494;-63
2022/05/06 07:53:22;;;;;;;1.20;1.10;;;11.80;99.90;;;;;;5062604;28;20535;-63
2022/05/06 07:55:53;;;;;;;3.93;1.17;;;11.70;99.90;;;;;;5065802;28;20478;-63
2022/05/06 07:58:24;;;;;;;1.20;1.03;;;11.70;99.90;;;;;;5067435;28;20575;-63
2022/05/06 08:00:56;;;;;;;1.63;1.53;;;11.70;99.90;;;;;;5065392;28;20468;-63
2022/05/06 08:06:15;;;;;;;4.23;1.60;;;11.70;99.90;;;;;;5065280;28;20521;-63
2022/05/06 08:08:48;;;;;;;1.97;1.60;;;11.80;99.90;;;;;;5064379;28;20476;-63
2022/05/06 08:11:19;;;;;;;1.70;1.60;;;11.80;99.90;;;;;;5064617;28;20464;-63
2022/05/06 08:13:51;;;;;;;2.00;1.90;;;11.70;99.90;;;;;;5064390;28;20462;-63
2022/05/06 08:16:23;;;;;;;2.53;1.63;;;11.80;99.90;;;;;;5064459;28;20499;-63
2022/05/06 08:18:54;;;;;;;1.67;1.57;;;11.80;99.90;;;;;;5067600;28;20493;-63
2022/05/06 08:21:25;;;;;;;2.17;1.60;;;11.80;99.90;;;;;;5066766;28;20456;-63
2022/05/06 08:23:55;;;;;;;3.60;1.93;;;11.80;99.90;;;;;;5063442;28;21006;-63
2022/05/06 08:26:26;;;;;;;2.37;1.93;;;11.80;99.90;;;;;;5064155;28;20460;-63
2022/05/06 08:28:57;;;;;;;3.33;2.00;;;11.70;99.90;;;;;;5063147;28;20453;-63
2022/05/06 08:31:32;;;;;;;3.50;2.10;;;11.70;99.90;;;;;;5063040;28;20478;-63
2022/05/06 08:34:02;;;;;;;2.33;1.73;;;11.80;99.90;;;;;;5066768;28;20468;-63
2022/05/06 08:36:33;;;;;;;3.30;2.20;;;11.80;99.90;;;;;;5063919;28;20471;-63
2022/05/06 08:39:05;;;;;;;5.17;2.20;;;11.70;99.90;;;;;;5061787;28;20482;-63
2022/05/06 08:41:38;;;;;;;2.27;1.73;;;11.70;99.90;;;;;;5066771;28;20453;-63
2022/05/06 08:52:53;;;;;;;4.20;2.13;;;11.70;99.90;;;;;;5039918;28;20476;-63
2022/05/06 08:55:24;;;;;;;1.60;1.50;;;11.70;99.90;;;;;;5039152;28;20464;-63
2022/05/06 08:57:56;;;;;;;2.30;1.73;;;11.70;99.90;;;;;;5039373;28;20559;-63
2022/05/06 09:00:28;;;;;;;2.43;1.73;;;11.60;99.90;;;;;;5039153;28;20483;-63
2022/05/06 09:03:00;;;;;;;2.00;1.80;;;11.50;99.90;;;;;;5040154;28;20547;-64
2022/05/06 09:05:31;;;;;;;3.40;1.57;;;11.50;99.90;;;;;;5040644;28;20529;-63
2022/05/06 09:08:03;;;;;;;2.73;1.87;;;11.50;99.90;;;;;;5040758;28;20453;-63
2022/05/06 09:10:34;;;;;;;2.37;1.50;;;11.40;99.90;;;;;;5037620;28;20496;-63
2022/05/06 09:13:05;;;;;;;2.23;1.60;;;11.30;99.90;;;;;;5039854;28;20471;-63
2022/05/06 09:18:25;;;;;;;1.93;1.67;;;11.30;99.90;;;;;;5039894;28;20453;-63
2022/05/06 09:21:11;;;;;;;2.83;1.33;;;11.20;99.90;;;;;;5040538;28;20480;-63
2022/05/06 09:23:42;;;;;;;1.90;1.70;;;11.40;99.90;;;;;;5039331;28;20464;-63
2022/05/06 09:26:19;;;;;;;3.23;1.77;;;11.30;99.90;;;;;;5056270;28;20452;-63
2022/05/06 09:28:50;;;;;;;1.80;1.37;;;11.20;99.90;;;;;;5063158;28;20487;-63
2022/05/06 09:31:27;;;;;;;3.30;1.60;;;11.30;99.90;;;;;;5061954;28;20558;-63
2022/05/06 09:34:11;;;;;;;1.27;0.90;;;11.30;99.90;;;;;;5062619;28;20518;-63
2022/05/06 09:36:43;;;;;;;2.10;1.20;;;11.30;99.90;;;;;;5063226;28;20453;-63
2022/05/06 09:39:15;;;;;;;1.90;1.10;;;11.30;99.90;;;;;;5060540;28;20471;-63
2022/05/06 09:41:46;;;;;;;2.60;1.20;;;11.30;99.90;;;;;;5062154;28;20475;-63
2022/05/06 09:44:23;;;;;;;2.03;1.40;;;11.20;99.90;;;;;;5063094;28;20464;-63
2022/05/06 09:47:10;;;;;;;1.97;1.30;;;11.20;99.90;;;;;;5064416;28;20482;-63
2022/05/06 09:49:44;;;;;;;1.57;1.37;;;11.20;99.90;;;;;;5061390;28;20817;-63
2022/05/06 09:52:18;;;;;;;3.33;1.30;;;11.30;99.90;;;;;;5065783;28;20503;-63
2022/05/06 09:54:49;;;;;;;1.50;1.40;;;11.10;99.90;;;;;;5061550;28;20461;-62
2022/05/06 09:57:20;;;;;;;1.40;1.23;;;11.10;99.90;;;;;;5067123;28;20563;-63
2022/05/06 09:59:51;;;;;;;1.70;1.47;;;11.20;99.90;;;;;;5062518;28;20488;-63
2022/05/06 10:02:22;;;;;;;3.17;1.07;;;11.20;99.90;;;;;;5062728;28;20460;-63
2022/05/06 10:04:57;;;;;;;2.17;1.60;;;11.20;99.90;;;;;;5062463;28;20468;-63
2022/05/06 10:07:29;;;;;;;1.10;1.00;;;11.20;99.90;;;;;;5056213;28;20463;-64
2022/05/06 10:10:02;;;;;;;2.27;1.30;;;11.20;99.90;;;;;;5062137;28;20465;-64
2022/05/06 10:12:38;;;;;;;1.87;1.30;;;11.20;99.90;;;;;;5062946;28;20566;-63
2022/05/06 10:15:12;;;;;;;1.93;1.77;;;11.10;99.90;;;;;;5061723;28;20487;-63
2022/05/06 10:18:01;;;;;;;2.80;1.20;;;11.10;99.90;;;;;;5065025;28;20462;-63
2022/05/06 10:20:53;;;;;;;2.63;1.03;;;11.20;99.90;;;;;;5065567;28;20464;-63
2022/05/06 10:23:24;;;;;;;1.60;1.23;;;11.20;99.90;;;;;;5061007;28;20474;-63
2022/05/06 10:25:57;;;;;;;1.70;1.10;;;11.10;99.90;;;;;;5062932;28;20504;-63
2022/05/06 10:35:05;;;;;;;1.20;1.10;;;11.10;99.90;;;;;;5060088;28;20456;-63
2022/05/06 10:37:40;;;;;;;1.60;1.13;;;11.10;99.90;;;;;;5062370;28;20808;-64
2022/05/06 10:40:33;;;;;;;1.43;1.33;;;11.10;99.90;;;;;;5062227;28;20452;-63
2022/05/06 10:43:06;;;;;;;3.50;1.80;;;11.10;99.90;;;;;;5061706;28;20464;-63
2022/05/06 10:45:36;;;;;;;3.27;1.30;;;11.10;99.90;;;;;;5063529;28;20475;-63
2022/05/06 10:48:22;;;;;;;1.80;0.93;;;11.10;99.90;;;;;;5062224;28;20464;-63
2022/05/06 10:50:53;;;;;;;2.60;0.90;;;11.00;99.90;;;;;;5064395;28;20606;-63
2022/05/06 10:53:38;;;;;;;2.20;1.30;;;11.00;99.90;;;;;;5060778;28;20825;-63
2022/05/06 10:56:09;;;;;;;4.33;1.33;;;11.00;99.90;;;;;;5054907;28;20460;-64
2022/05/06 10:58:40;;;;;;;1.07;0.83;;;11.00;99.90;;;;;;5058244;28;20518;-63
2022/05/06 11:01:17;;;;;;;2.57;0.90;;;11.00;99.90;;;;;;5062007;28;20801;-62
2022/05/06 11:03:53;;;;;;;1.50;0.97;;;11.00;99.90;;;;;;5061720;28;20513;-62
2022/05/06 11:06:24;;;;;;;1.23;1.03;;;11.00;99.90;;;;;;5061382;28;20464;-62
2022/05/06 11:08:57;;;;;;;1.47;1.37;;;11.00;99.90;;;;;;5059248;28;20507;-62
2022/05/06 11:11:35;;;;;;;2.30;1.40;;;11.20;99.90;;;;;;5059815;28;20499;-62
2022/05/06 11:14:20;;;;;;;3.63;1.53;;;11.10;99.90;;;;;;5056150;28;20871;-63
2022/05/06 11:17:16;;;;;;;3.50;1.53;;;11.10;99.90;;;;;;5060798;28;20538;-63
2022/05/06 11:19:46;;;;;;;2.77;1.43;;;11.10;99.90;;;;;;5053822;28;20468;-63
2022/05/06 11:22:23;;;;;;;1.57;1.43;;;11.10;99.90;;;;;;5063111;28;20460;-62
2022/05/06 11:25:00;;;;;;;5.00;1.70;;;11.10;99.90;;;;;;5059873;28;20469;-63
2022/05/06 11:27:37;;;;;;;1.70;1.60;;;11.00;99.90;;;;;;5053856;28;20482;-63
2022/05/06 11:30:09;;;;;;;1.50;1.10;;;11.10;99.90;;;;;;5061467;28;20479;-62
2022/05/06 11:32:50;;;;;;;1.60;1.47;;;11.20;99.90;;;;;;5060270;28;20496;-62
2022/05/06 11:35:44;;;;;;;1.00;0.90;;;11.30;99.90;;;;;;5061077;28;20474;-63
2022/05/06 11:38:15;;;;;;;3.60;1.27;;;11.30;99.90;;;;;;5053896;28;20457;-64
2022/05/06 11:40:48;;;;;;;1.60;1.40;;;11.10;99.90;;;;;;5060580;28;20457;-63
2022/05/06 11:43:22;;;;;;;2.47;1.60;;;11.10;99.90;;;;;;5060547;28;20466;-62
2022/05/06 11:48:47;;;;;;;2.00;1.70;;;11.00;99.90;;;;;;5062613;28;20506;-62
2022/05/06 11:51:21;;;;;;;2.23;1.17;;;10.90;99.90;;;;;;5056031;28;20498;-62
2022/05/06 11:53:54;;;;;;;2.07;1.47;;;11.00;99.90;;;;;;5061705;28;20635;-63
2022/05/06 11:56:27;;;;;;;1.60;1.50;;;11.00;99.90;;;;;;5063424;28;20508;-63
2022/05/06 11:59:00;;;;;;;2.40;1.67;;;11.10;99.90;;;;;;5061478;28;20463;-63
2022/05/06 12:01:32;;;;;;;2.93;2.23;;;11.00;99.90;;;;;;5060963;28;20530;-63
2022/05/06 12:04:04;;;;;;;2.30;1.80;;;11.00;99.90;;;;;;5063648;28;20460;-62
2022/05/06 12:06:40;;;;;;;1.93;1.63;;;11.00;99.90;;;;;;5063438;28;20459;-62
2022/05/06 12:09:13;;;;;;;2.00;1.90;;;11.10;99.90;;;;;;5062633;28;20505;-63
2022/05/06 12:11:47;;;;;;;2.33;1.83;;;11.00;99.90;;;;;;5051518;28;20498;-63
2022/05/06 12:14:19;;;;;;;1.40;1.30;;;11.00;99.90;;;;;;5068440;28;20460;-62
2022/05/06 12:16:58;;;;;;;2.40;1.80;;;10.90;99.90;;;;;;5064822;28;20490;-62
2022/05/06 12:19:39;;;;;;;3.77;1.97;;;11.00;99.90;;;;;;5060510;28;20456;-62
2022/05/06 12:22:12;;;;;;;2.53;2.10;;;11.10;99.90;;;;;;5064185;28;20490;-62
2022/05/06 12:24:45;;;;;;;2.40;1.93;;;11.00;99.90;;;;;;5058131;28;20459;-63
2022/05/06 12:27:25;;;;;;;2.40;1.77;;;11.10;99.90;;;;;;5064273;28;20465;-63
2022/05/06 12:29:57;;;;;;;3.03;2.10;;;10.90;99.90;;;;;;5059306;28;20449;-63
2022/05/06 12:32:29;;;;;;;2.80;2.37;;;10.90;99.90;;;;;;5062757;28;20488;-63
2022/05/06 12:35:07;;;;;;;2.47;2.27;;;11.00;99.90;;;;;;5073592;28;20574;-63
2022/05/06 12:37:53;;;;;;;3.10;2.73;;;11.00;99.90;;;;;;5064056;28;20460;-63
2022/05/06 12:40:31;;;;;;;3.60;3.03;;;11.00;99.90;;;;;;5063557;28;20463;-63
2022/05/06 12:43:11;;;;;;;4.70;2.73;;;11.10;99.90;;;;;;5063681;28;20463;-63
2022/05/06 12:45:55;;;;;;;5.33;3.70;;;11.10;99.90;;;;;;5067805;28;20463;-63
2022/05/06 12:51:14;;;;;;;4.03;3.57;;;11.10;99.90;;;;;;5048893;28;20587;-63
2022/05/06 12:53:44;;;;;;;5.17;3.70;;;11.00;99.90;;;;;;5064790;28;20495;-63
2022/05/06 12:56:20;;;;;;;5.07;3.73;;;11.00;99.90;;;;;;5065564;28;20465;-63
2022/05/06 12:58:52;;;;;;;4.40;3.87;;;10.90;99.90;;;;;;5066668;28;20462;-64
2022/05/06 13:01:23;;;;;;;4.40;3.43;;;10.90;99.90;;;;;;5063273;28;20464;-63
2022/05/06 13:03:54;;;;;;;4.60;4.20;;;10.90;99.90;;;;;;5064921;28;20582;-64
2022/05/06 13:06:25;;;;;;;4.97;4.40;;;10.90;99.90;;;;;;5063157;28;20564;-63
2022/05/06 13:08:56;;;;;;;4.63;3.60;;;10.90;99.90;;;;;;5062670;28;20551;-63
2022/05/06 13:11:26;;;;;;;5.07;4.57;;;10.90;99.90;;;;;;5062922;28;20468;-63
2022/05/06 13:14:00;;;;;;;4.87;3.80;;;10.90;99.90;;;;;;5064573;28;20471;-63
2022/05/06 13:16:31;;;;;;;4.73;4.00;;;10.70;99.90;;;;;;5065499;28;20488;-63
2022/05/06 13:19:02;;;;;;;8.77;4.47;;;10.80;99.90;;;;;;5063008;28;20548;-63
2022/05/06 13:21:34;;;;;;;5.27;3.93;;;10.80;99.90;;;;;;5064153;28;20484;-63
2022/05/06 13:24:05;;;;;;;5.27;4.50;;;10.90;99.90;;;;;;5060296;28;20456;-63
2022/05/06 13:26:37;;;;;;;4.70;3.77;;;11.00;99.90;;;;;;5062693;28;20464;-63
2022/05/06 13:29:11;;;;;;;6.37;4.83;;;11.00;99.90;;;;;;5062648;28;20958;-63
2022/05/06 13:31:42;;;;;;;3.93;3.50;;;11.10;99.90;;;;;;5064796;28;20467;-63
2022/05/06 13:34:13;;;;;;;6.60;4.50;;;11.10;99.90;;;;;;5062132;28;20453;-64
2022/05/06 13:36:44;;;;;;;5.47;4.57;;;11.00;99.90;;;;;;5060221;28;20479;-63
2022/05/06 13:39:15;;;;;;;5.00;4.50;;;10.90;99.90;;;;;;5062676;28;20901;-63
2022/05/06 13:41:46;;;;;;;5.20;4.10;;;10.80;99.90;;;;;;5065017;28;20552;-63
2022/05/06 13:44:18;;;;;;;4.87;4.30;;;10.80;99.90;;;;;;5058912;28;20527;-64
2022/05/06 13:46:51;;;;;;;5.30;4.37;;;10.90;99.90;;;;;;5060229;28;20828;-64
2022/05/06 13:49:21;;;;;;;5.43;4.33;;;10.90;99.90;;;;;;5063631;28;20965;-64
2022/05/06 13:51:52;;;;;;;3.77;3.47;;;10.90;99.90;;;;;;5063820;28;20541;-64
2022/05/06 13:54:23;;;;;;;4.83;4.33;;;10.80;99.90;;;;;;5053245;28;20458;-63
2022/05/06 13:59:43;;;;;;;5.50;4.00;;;11.00;99.90;;;;;;5047833;28;20456;-63
2022/05/06 14:02:13;;;;;;;5.30;4.53;;;10.90;99.90;;;;;;5060683;28;20460;-64